createdAt,value
2019-06-26T00:02:23.674Z,88.90
2019-06-26T00:06:26.675Z,88.80
2019-06-26T00:10:29.666Z,89.00
2019-06-26T00:14:32.667Z,89.60
2019-06-26T00:18:35.663Z,89.30
2019-06-26T00:22:38.667Z,89.50
2019-06-26T00:26:41.663Z,90.00
2019-06-26T00:30:44.674Z,90.10
2019-06-26T00:34:47.834Z,90.00
2019-06-26T00:38:50.945Z,90.40
2019-06-26T00:42:54.121Z,90.20
2019-06-26T00:46:57.393Z,90.00
2019-06-26T00:51:01.517Z,89.80
2019-06-26T00:55:05.176Z,90.00
2019-06-26T00:59:08.370Z,90.10
2019-06-26T01:03:11.520Z,89.20
2019-06-26T01:07:14.640Z,89.60
2019-06-26T01:11:17.661Z,89.30
2019-06-26T01:15:20.775Z,90.00
2019-06-26T01:19:23.941Z,89.70
2019-06-26T01:23:26.984Z,90.30
2019-06-26T01:27:30.145Z,90.40
2019-06-26T01:31:33.219Z,90.60
2019-06-26T01:35:36.214Z,90.70
2019-06-26T01:39:39.234Z,90.80
2019-06-26T01:43:42.235Z,90.90
2019-06-26T01:47:45.241Z,91.00
2019-06-26T01:51:48.503Z,90.90
2019-06-26T01:55:51.508Z,90.90
2019-06-26T01:59:54.549Z,90.90
2019-06-26T02:03:57.661Z,90.90
2019-06-26T02:08:00.684Z,91.10
2019-06-26T02:12:03.784Z,91.00
2019-06-26T02:16:06.780Z,90.90
2019-06-26T02:20:09.991Z,91.10
2019-06-26T02:24:13.251Z,90.80
2019-06-26T02:28:16.365Z,90.10
2019-06-26T02:32:19.477Z,90.60
2019-06-26T02:36:22.657Z,90.40
2019-06-26T02:40:25.771Z,90.00
2019-06-26T02:44:28.828Z,89.20
2019-06-26T02:48:31.944Z,90.00
2019-06-26T02:52:35.583Z,90.00
2019-06-26T02:56:38.881Z,89.80
2019-06-26T03:00:41.982Z,89.80
2019-06-26T03:04:45.028Z,90.00
2019-06-26T03:08:48.024Z,88.90
2019-06-26T03:12:51.022Z,88.10
2019-06-26T03:16:54.051Z,89.10
2019-06-26T03:20:57.049Z,89.00
2019-06-26T03:25:00.048Z,89.30
2019-06-26T03:29:03.044Z,89.80
2019-06-26T03:33:06.060Z,90.10
2019-06-26T03:37:09.071Z,90.30
2019-06-26T03:41:12.169Z,90.40
2019-06-26T03:45:25.139Z,90.60
2019-06-26T03:49:20.384Z,90.70
2019-06-26T03:53:24.293Z,90.70
2019-06-26T03:57:27.287Z,90.50
2019-06-26T04:01:30.584Z,90.00
2019-06-26T04:05:33.591Z,88.90
2019-06-26T04:09:36.591Z,87.70
2019-06-26T04:13:39.695Z,88.20
2019-06-26T04:17:43.364Z,86.70
2019-06-26T04:21:46.373Z,86.50
2019-06-26T04:25:49.370Z,85.90
2019-06-26T04:29:52.383Z,85.80
2019-06-26T04:33:55.383Z,85.30
2019-06-26T04:37:58.395Z,84.70
2019-06-26T04:42:01.448Z,84.30
2019-06-26T04:46:04.455Z,83.50
2019-06-26T04:50:07.956Z,84.30
2019-06-26T04:54:11.108Z,83.10
2019-06-26T04:58:14.122Z,82.60
2019-06-26T05:02:17.326Z,83.00
2019-06-26T05:06:20.354Z,82.30
2019-06-26T05:10:23.365Z,82.40
2019-06-26T05:14:26.351Z,81.70
2019-06-26T05:18:29.391Z,81.90
2019-06-26T05:22:32.440Z,82.00
2019-06-26T05:26:35.435Z,81.50
2019-06-26T05:30:38.475Z,79.90
2019-06-26T05:34:41.469Z,77.30
2019-06-26T05:38:44.501Z,76.80
2019-06-26T05:42:47.506Z,73.80
2019-06-26T05:46:50.516Z,73.00
2019-06-26T05:50:53.537Z,73.60
2019-06-26T05:54:57.879Z,73.20
2019-06-26T05:59:00.867Z,72.50
2019-06-26T06:03:03.867Z,72.70
2019-06-26T06:07:06.858Z,72.90
2019-06-26T06:11:09.859Z,72.70
2019-06-26T06:15:13.760Z,72.50
2019-06-26T06:19:16.752Z,74.30
2019-06-26T06:23:19.765Z,74.40
2019-06-26T06:27:22.843Z,74.30
2019-06-26T06:31:25.859Z,75.70
2019-06-26T06:35:28.852Z,76.70
2019-06-26T06:39:31.852Z,76.20
2019-06-26T06:43:34.845Z,76.00
2019-06-26T06:47:37.919Z,75.90
2019-06-26T06:51:40.919Z,76.40
2019-06-26T06:55:44.387Z,74.00
2019-06-26T06:59:47.771Z,74.00
2019-06-26T07:03:50.815Z,75.60
2019-06-26T07:07:53.806Z,73.40
2019-06-26T07:11:56.811Z,72.50
2019-06-26T07:15:59.820Z,73.10
2019-06-26T07:20:03.921Z,72.80
2019-06-26T07:24:06.923Z,73.10
2019-06-26T07:28:09.938Z,70.20
2019-06-26T07:32:13.027Z,67.50
2019-06-26T07:36:16.010Z,66.50
2019-06-26T07:40:19.225Z,65.60
2019-06-26T07:44:22.223Z,63.50
2019-06-26T07:48:25.218Z,61.60
2019-06-26T07:52:28.231Z,62.10
2019-06-26T07:56:32.951Z,60.40
2019-06-26T08:00:35.948Z,60.30
2019-06-26T08:04:38.943Z,59.00
2019-06-26T08:08:41.955Z,57.30
2019-06-26T08:12:44.969Z,56.10
2019-06-26T08:16:47.970Z,54.60
2019-06-26T08:21:10.579Z,52.10
2019-06-26T08:24:55.852Z,47.00
2019-06-26T08:28:58.844Z,48.60
2019-06-26T08:33:01.839Z,44.40
2019-06-26T08:37:04.818Z,43.20
2019-06-26T08:41:07.807Z,41.60
2019-06-26T08:45:11.311Z,41.60
2019-06-26T08:49:24.961Z,40.60
2019-06-26T08:53:19.205Z,39.00
2019-06-26T08:57:22.726Z,40.20
2019-06-26T09:01:25.707Z,36.40
2019-06-26T09:05:28.832Z,39.30
2019-06-26T09:09:31.820Z,35.30
2019-06-26T09:13:34.855Z,33.80
2019-06-26T09:17:37.966Z,34.40
2019-06-26T09:21:40.957Z,33.30
2019-06-26T09:25:43.930Z,31.60
2019-06-26T09:29:46.924Z,32.40
2019-06-26T09:33:49.919Z,32.30
2019-06-26T09:37:52.934Z,33.20
2019-06-26T09:41:55.946Z,30.50
2019-06-26T09:45:58.920Z,31.70
2019-06-26T09:50:04.609Z,30.10
2019-06-26T09:54:07.607Z,32.10
2019-06-26T09:58:13.413Z,31.00
2019-06-26T10:02:16.655Z,30.00
2019-06-26T10:06:19.648Z,31.20
2019-06-26T10:10:22.653Z,30.00
2019-06-26T10:14:41.037Z,29.60
2019-06-26T10:18:30.907Z,29.00
2019-06-26T10:22:33.908Z,28.70
2019-06-26T10:26:36.919Z,29.00
2019-06-26T10:30:39.948Z,29.40
2019-06-26T10:34:42.954Z,28.30
2019-06-26T10:38:45.950Z,28.80
2019-06-26T10:42:49.973Z,29.80
2019-06-26T10:46:52.953Z,28.50
2019-06-26T10:50:58.844Z,27.70
2019-06-26T10:55:02.056Z,27.20
2019-06-26T10:59:05.303Z,28.30
2019-06-26T11:03:08.288Z,28.40
2019-06-26T11:07:11.286Z,27.60
2019-06-26T11:11:14.287Z,27.20
2019-06-26T11:15:18.103Z,26.90
2019-06-26T11:19:21.083Z,26.80
2019-06-26T11:23:24.103Z,26.70
2019-06-26T11:27:27.088Z,27.20
2019-06-26T11:31:30.219Z,27.00
2019-06-26T11:35:33.245Z,27.70
2019-06-26T11:39:36.231Z,28.80
2019-06-26T11:43:40.375Z,28.10
2019-06-26T11:47:45.704Z,29.70
2019-06-26T11:51:48.247Z,30.60
2019-06-26T11:55:51.596Z,29.90
2019-06-26T11:59:55.946Z,28.90
2019-06-26T12:03:58.969Z,28.30
2019-06-26T12:08:02.005Z,28.90
2019-06-26T12:12:05.009Z,28.10
2019-06-26T12:16:08.124Z,28.80
2019-06-26T12:20:18.608Z,29.10
2019-06-26T12:24:16.531Z,30.60
2019-06-26T12:28:19.669Z,29.80
2019-06-26T12:32:22.833Z,30.90
2019-06-26T12:36:25.903Z,29.80
2019-06-26T12:40:31.371Z,29.10
2019-06-26T12:44:35.998Z,29.40
2019-06-26T12:48:39.105Z,29.70
2019-06-26T12:52:42.116Z,28.30
2019-06-26T12:56:45.081Z,28.60
2019-06-26T13:00:50.316Z,28.50
2019-06-26T13:04:53.309Z,27.50
2019-06-26T13:08:56.323Z,28.50
2019-06-26T13:12:59.345Z,28.10
2019-06-26T13:17:02.440Z,28.50
2019-06-26T13:21:05.651Z,28.50
2019-06-26T13:25:10.965Z,29.90
2019-06-26T13:29:13.966Z,31.30
2019-06-26T13:33:16.991Z,30.40
2019-06-26T13:37:20.292Z,31.20
2019-06-26T13:41:23.282Z,30.60
2019-06-26T13:45:26.274Z,31.60
2019-06-26T13:49:29.248Z,32.50
2019-06-26T13:53:32.251Z,32.00
2019-06-26T13:57:35.247Z,31.00
2019-06-26T14:01:40.073Z,31.40
2019-06-26T14:05:43.122Z,31.10
2019-06-26T14:09:46.118Z,31.70
2019-06-26T14:13:49.165Z,31.10
2019-06-26T14:17:52.276Z,32.40
2019-06-26T14:21:55.388Z,33.00
2019-06-26T14:25:58.453Z,33.90
2019-06-26T14:30:03.771Z,34.00
2019-06-26T14:34:06.781Z,32.60
2019-06-26T14:38:09.788Z,33.00
2019-06-26T14:42:12.904Z,33.60
2019-06-26T14:46:15.979Z,34.20
2019-06-26T14:50:19.296Z,33.70
2019-06-26T14:54:23.301Z,33.00
2019-06-26T14:58:26.303Z,32.60
2019-06-26T15:02:31.850Z,34.20
2019-06-26T15:06:35.115Z,33.70
2019-06-26T15:10:38.171Z,33.70
2019-06-26T15:14:41.243Z,33.10
2019-06-26T15:18:45.036Z,34.60
2019-06-26T15:22:48.056Z,35.00
2019-06-26T15:26:51.070Z,35.40
2019-06-26T15:30:54.088Z,35.30
2019-06-26T15:34:57.149Z,35.80
2019-06-26T15:39:00.215Z,37.20
2019-06-26T15:43:03.266Z,37.10
2019-06-26T15:47:06.273Z,37.50
2019-06-26T15:51:09.275Z,37.50
2019-06-26T15:55:14.185Z,36.20
2019-06-26T15:59:17.194Z,36.10
2019-06-26T16:03:21.334Z,35.90
2019-06-26T16:07:24.334Z,36.30
2019-06-26T16:11:27.456Z,36.20
2019-06-26T16:15:30.460Z,36.30
2019-06-26T16:19:33.500Z,36.30
2019-06-26T16:23:36.539Z,36.00
2019-06-26T16:27:39.668Z,36.90
2019-06-26T16:31:42.683Z,36.30
2019-06-26T16:35:45.699Z,37.50
2019-06-26T16:39:48.698Z,37.50
2019-06-26T16:43:51.695Z,38.30
2019-06-26T16:47:54.695Z,37.40
2019-06-26T16:51:57.737Z,37.50
2019-06-26T16:56:00.866Z,37.30
2019-06-26T17:00:09.841Z,38.90
2019-06-26T17:04:13.808Z,39.30
2019-06-26T17:08:16.852Z,40.00
2019-06-26T17:12:19.956Z,40.60
2019-06-26T17:16:22.947Z,40.30
2019-06-26T17:20:25.949Z,40.60
2019-06-26T17:24:28.946Z,40.20
2019-06-26T17:28:31.953Z,40.80
2019-06-26T17:32:35.079Z,41.60
2019-06-26T17:36:38.086Z,42.10
2019-06-26T17:40:41.099Z,42.30
2019-06-26T17:44:44.095Z,42.60
2019-06-26T17:48:47.124Z,43.60
2019-06-26T17:52:50.130Z,43.60
2019-06-26T17:56:53.119Z,44.30
2019-06-26T18:00:56.117Z,45.10
2019-06-26T18:05:00.709Z,45.20
2019-06-26T18:09:06.644Z,45.90
2019-06-26T18:13:09.635Z,45.60
2019-06-26T18:17:21.974Z,46.00
2019-06-26T18:21:23.445Z,46.60
2019-06-26T18:25:28.417Z,47.10
2019-06-26T18:29:34.275Z,47.20
2019-06-26T18:33:37.402Z,47.60
2019-06-26T18:37:41.423Z,47.60
2019-06-26T18:41:44.709Z,48.50
2019-06-26T18:45:47.786Z,49.30
2019-06-26T18:49:50.767Z,51.10
2019-06-26T18:53:54.083Z,50.80
2019-06-26T18:57:57.167Z,50.40
2019-06-26T19:02:03.556Z,50.20
2019-06-26T19:06:07.723Z,50.40
2019-06-26T19:10:11.274Z,50.70
2019-06-26T19:14:14.281Z,50.90
2019-06-26T19:18:19.916Z,50.80
2019-06-26T19:22:24.905Z,50.80
2019-06-26T19:26:27.978Z,51.70
2019-06-26T19:30:31.075Z,52.60
2019-06-26T19:34:34.067Z,52.60
2019-06-26T19:38:37.169Z,53.60
2019-06-26T19:42:40.275Z,54.30
2019-06-26T19:46:43.268Z,54.80
2019-06-26T19:50:46.337Z,55.30
2019-06-26T19:54:49.367Z,55.80
2019-06-26T19:58:52.473Z,56.20
2019-06-26T20:02:55.475Z,56.00
2019-06-26T20:07:01.132Z,56.00
2019-06-26T20:11:04.583Z,55.60
2019-06-26T20:15:08.043Z,55.20
2019-06-26T20:19:11.062Z,55.30
2019-06-26T20:23:19.128Z,55.20
2019-06-26T20:27:22.224Z,55.80
2019-06-26T20:31:25.220Z,55.70
2019-06-26T20:35:28.224Z,55.70
2019-06-26T20:39:31.248Z,55.80
2019-06-26T20:43:34.251Z,56.40
2019-06-26T20:47:37.264Z,56.30
2019-06-26T20:51:40.254Z,57.10
2019-06-26T20:55:43.259Z,57.40
2019-06-26T20:59:46.242Z,58.00
2019-06-26T21:03:49.238Z,58.00
2019-06-26T21:07:54.388Z,58.00
2019-06-26T21:11:57.998Z,58.50
2019-06-26T21:16:00.983Z,58.70
2019-06-26T21:20:04.890Z,58.70
2019-06-26T21:24:07.896Z,59.00
2019-06-26T21:28:10.913Z,59.40
2019-06-26T21:32:13.908Z,59.80
2019-06-26T21:36:16.936Z,60.60
2019-06-26T21:40:19.919Z,61.50
2019-06-26T21:44:23.015Z,61.80
2019-06-26T21:48:26.011Z,61.80
2019-06-26T21:52:29.257Z,62.20
2019-06-26T21:56:32.242Z,62.70
2019-06-26T22:00:35.919Z,63.00
2019-06-26T22:04:39.036Z,63.80
2019-06-26T22:08:43.036Z,64.00
2019-06-26T22:12:46.258Z,64.10
2019-06-26T22:16:49.258Z,64.20
2019-06-26T22:20:52.269Z,64.10
2019-06-26T22:24:55.258Z,64.30
2019-06-26T22:28:58.248Z,64.90
2019-06-26T22:33:01.257Z,65.30
2019-06-26T22:37:04.258Z,65.70
2019-06-26T22:41:07.375Z,65.70
2019-06-26T22:45:10.700Z,65.70
2019-06-26T22:49:13.679Z,65.80
2019-06-26T22:53:16.668Z,66.40
2019-06-26T22:57:19.660Z,67.30
2019-06-26T23:01:22.764Z,67.70
2019-06-26T23:05:25.762Z,68.20
2019-06-26T23:09:30.410Z,68.10
2019-06-26T23:13:33.460Z,69.30
2019-06-26T23:17:36.467Z,69.50
2019-06-26T23:21:39.471Z,70.10
2019-06-26T23:25:42.472Z,70.50
2019-06-26T23:29:45.484Z,70.80
2019-06-26T23:33:48.517Z,70.90
2019-06-26T23:37:51.530Z,71.30
2019-06-26T23:41:54.507Z,72.00
2019-06-26T23:45:57.516Z,72.80
2019-06-26T23:50:00.612Z,73.30
2019-06-26T23:54:04.611Z,73.40
2019-06-26T23:58:07.601Z,73.20
